createdAt,value
2022-12-08T00:01:21.681Z,10.98
2022-12-08T00:04:18.584Z,11.52
2022-12-08T00:07:33.875Z,13.73
2022-12-08T00:13:47.481Z,13.07
2022-12-08T00:16:44.561Z,9.70
2022-12-08T00:19:42.668Z,7.43
2022-12-08T00:22:39.494Z,10.60
2022-12-08T00:25:37.185Z,7.63
2022-12-08T00:28:34.911Z,8.00
2022-12-08T00:31:31.815Z,9.10
2022-12-08T00:34:28.801Z,8.38
2022-12-08T00:37:25.610Z,9.90
2022-12-08T00:40:22.492Z,11.00
2022-12-08T00:43:19.318Z,8.13
2022-12-08T00:46:16.214Z,7.78
2022-12-08T00:49:13.579Z,9.77
2022-12-08T00:52:10.493Z,8.82
2022-12-08T00:55:07.941Z,7.65
2022-12-08T00:58:04.795Z,7.63
2022-12-08T01:01:01.675Z,7.88
2022-12-08T01:04:02.174Z,8.18
2022-12-08T01:06:59.035Z,9.48
2022-12-08T01:09:57.691Z,8.00
2022-12-08T01:12:54.527Z,6.35
2022-12-08T01:15:51.349Z,8.30
2022-12-08T01:18:48.378Z,8.25
2022-12-08T01:21:46.472Z,7.22
2022-12-08T01:24:43.328Z,9.20
2022-12-08T01:27:40.143Z,7.82
2022-12-08T01:30:40.015Z,8.75
2022-12-08T01:33:36.865Z,8.80
2022-12-08T01:36:38.467Z,8.40
2022-12-08T01:39:35.701Z,7.97
2022-12-08T01:42:34.454Z,6.82
2022-12-08T01:45:32.666Z,6.45
2022-12-08T01:48:29.501Z,8.18
2022-12-08T01:51:27.249Z,8.88
2022-12-08T01:54:29.444Z,7.57
2022-12-08T01:57:37.572Z,7.82
2022-12-08T02:00:34.397Z,8.38
2022-12-08T02:03:39.413Z,8.60
2022-12-08T02:06:41.681Z,8.75
2022-12-08T02:09:40.112Z,8.88
2022-12-08T02:12:36.951Z,7.30
2022-12-08T02:15:43.078Z,7.75
2022-12-08T02:19:29.154Z,8.75
2022-12-08T02:23:01.816Z,8.40
2022-12-08T02:27:03.622Z,7.85
2022-12-08T02:30:22.382Z,7.50
2022-12-08T02:33:40.225Z,9.07
2022-12-08T02:36:50.653Z,9.45
2022-12-08T02:40:14.839Z,11.00
2022-12-08T02:43:43.299Z,10.15
2022-12-08T02:47:03.562Z,11.57
2022-12-08T02:50:00.848Z,12.48
2022-12-08T02:52:57.867Z,11.15
2022-12-08T02:56:15.688Z,10.23
2022-12-08T02:59:24.552Z,10.88
2022-12-08T03:02:58.889Z,9.63
2022-12-08T03:06:35.516Z,10.88
2022-12-08T03:09:59.031Z,9.80
2022-12-08T03:13:40.000Z,10.27
2022-12-08T03:16:40.277Z,8.93
2022-12-08T03:19:41.846Z,10.80
2022-12-08T03:22:40.746Z,9.05
2022-12-08T03:25:53.290Z,11.48
2022-12-08T03:28:50.435Z,13.55
2022-12-08T03:32:01.294Z,11.40
2022-12-08T03:35:04.190Z,12.27
2022-12-08T03:38:19.744Z,12.63
2022-12-08T03:41:19.521Z,12.45
2022-12-08T03:44:16.428Z,9.87
2022-12-08T03:47:13.343Z,9.73
2022-12-08T03:50:11.538Z,9.80
2022-12-08T03:53:08.425Z,10.32
2022-12-08T03:56:15.566Z,12.18
2022-12-08T03:59:12.409Z,10.60
2022-12-08T04:02:09.286Z,12.55
2022-12-08T04:05:06.838Z,9.80
2022-12-08T04:08:03.824Z,10.57
2022-12-08T04:11:00.786Z,10.88
2022-12-08T04:13:57.678Z,10.73
2022-12-08T04:16:54.486Z,11.38
2022-12-08T04:19:51.338Z,9.27
2022-12-08T04:22:48.188Z,13.90
2022-12-08T04:25:45.510Z,12.60
2022-12-08T04:28:42.729Z,11.30
2022-12-08T04:31:39.633Z,11.27
2022-12-08T04:34:36.536Z,15.07
2022-12-08T04:37:33.367Z,8.85
2022-12-08T04:40:30.233Z,9.15
2022-12-08T04:43:27.131Z,13.00
2022-12-08T04:46:23.980Z,18.48
2022-12-08T04:49:20.941Z,15.82
2022-12-08T04:52:17.736Z,14.15
2022-12-08T04:55:14.701Z,11.88
2022-12-08T04:58:18.299Z,15.60
2022-12-08T05:01:15.300Z,13.25
2022-12-08T05:04:12.232Z,12.98
2022-12-08T05:07:09.220Z,17.35
2022-12-08T05:10:07.361Z,11.05
2022-12-08T05:13:04.450Z,10.40
2022-12-08T05:16:19.438Z,14.90
2022-12-08T05:19:16.738Z,13.52
2022-12-08T05:22:13.693Z,14.65
2022-12-08T05:25:10.960Z,14.55
2022-12-08T05:28:39.504Z,14.98
2022-12-08T05:31:24.913Z,16.27
2022-12-08T05:34:21.983Z,12.55
2022-12-08T05:37:19.051Z,13.27
2022-12-08T05:40:16.033Z,14.02
2022-12-08T05:43:12.931Z,14.48
2022-12-08T05:46:10.134Z,12.00
2022-12-08T05:49:07.164Z,17.65
2022-12-08T05:52:04.159Z,10.57
2022-12-08T05:55:01.048Z,14.25
2022-12-08T05:57:58.610Z,16.45
2022-12-08T06:00:57.957Z,13.90
2022-12-08T06:03:57.042Z,15.15
2022-12-08T06:06:53.942Z,15.85
2022-12-08T06:09:50.782Z,14.25
2022-12-08T06:12:47.612Z,18.67
2022-12-08T06:15:44.503Z,14.13
2022-12-08T06:18:49.788Z,16.33
2022-12-08T06:21:46.835Z,16.20
2022-12-08T06:24:43.681Z,17.88
2022-12-08T06:27:40.558Z,17.00
2022-12-08T06:30:37.984Z,18.30
2022-12-08T06:33:35.115Z,12.88
2022-12-08T06:36:32.654Z,12.70
2022-12-08T06:39:29.571Z,17.20
2022-12-08T06:42:45.066Z,12.80
2022-12-08T06:45:42.075Z,23.20
2022-12-08T06:48:39.193Z,10.43
2022-12-08T06:51:35.989Z,15.77
2022-12-08T06:54:32.850Z,15.65
2022-12-08T06:57:29.705Z,25.02
2022-12-08T07:00:26.789Z,21.15
2022-12-08T07:03:23.826Z,17.80
2022-12-08T07:06:24.520Z,15.80
2022-12-08T07:12:18.373Z,20.80
2022-12-08T07:15:15.305Z,21.80
2022-12-08T07:18:12.313Z,24.42
2022-12-08T07:21:13.089Z,20.77
2022-12-08T07:24:10.066Z,21.83
2022-12-08T07:27:06.995Z,25.70
2022-12-08T07:30:04.706Z,18.45
2022-12-08T07:33:05.703Z,20.00
2022-12-08T07:39:01.933Z,19.00
2022-12-08T07:41:59.282Z,17.70
2022-12-08T07:44:56.176Z,19.13
2022-12-08T07:47:53.014Z,17.77
2022-12-08T07:50:49.863Z,10.70
2022-12-08T07:53:53.794Z,20.27
2022-12-08T07:56:51.602Z,14.85
2022-12-08T07:59:48.466Z,16.92
2022-12-08T08:02:45.559Z,18.45
2022-12-08T08:05:44.084Z,19.48
2022-12-08T08:08:40.929Z,15.25
2022-12-08T08:11:37.800Z,17.52
2022-12-08T08:14:34.739Z,20.65
2022-12-08T08:17:32.926Z,18.25
2022-12-08T08:20:29.891Z,14.07
2022-12-08T08:23:27.563Z,14.70
2022-12-08T08:26:24.414Z,16.35
2022-12-08T08:29:22.060Z,14.52
2022-12-08T08:32:19.355Z,19.30
2022-12-08T08:35:16.581Z,16.17
2022-12-08T08:38:13.954Z,20.77
2022-12-08T08:41:11.168Z,15.38
2022-12-08T08:44:08.092Z,17.60
2022-12-08T08:47:04.996Z,16.48
2022-12-08T08:50:02.345Z,14.90
2022-12-08T08:53:01.589Z,15.30
2022-12-08T08:55:58.537Z,11.88
2022-12-08T08:58:55.667Z,16.45
2022-12-08T09:01:53.380Z,16.50
2022-12-08T09:04:51.463Z,17.30
2022-12-08T09:07:48.524Z,13.90
2022-12-08T09:10:45.632Z,17.13
2022-12-08T09:13:42.704Z,14.80
2022-12-08T09:16:42.330Z,15.02
2022-12-08T09:19:39.561Z,12.75
2022-12-08T09:22:36.373Z,14.48
2022-12-08T09:25:33.327Z,12.60
2022-12-08T09:28:30.886Z,10.60
2022-12-08T09:31:27.935Z,12.05
2022-12-08T09:34:24.913Z,13.93
2022-12-08T09:37:21.850Z,15.90
2022-12-08T09:40:22.898Z,13.23
2022-12-08T09:43:59.595Z,13.55
2022-12-08T09:46:58.471Z,11.90
2022-12-08T09:50:30.430Z,14.02
2022-12-08T09:53:35.694Z,14.30
2022-12-08T09:56:36.954Z,13.57
2022-12-08T09:59:35.431Z,18.15
2022-12-08T10:02:32.579Z,11.45
2022-12-08T10:05:36.767Z,12.77
2022-12-08T10:08:59.774Z,15.10
2022-12-08T10:12:10.365Z,17.73
2022-12-08T10:15:28.920Z,15.32
2022-12-08T10:18:30.803Z,9.68
2022-12-08T10:21:30.392Z,12.15
2022-12-08T10:24:41.224Z,26.13
2022-12-08T10:27:38.154Z,12.93
2022-12-08T10:30:34.999Z,16.98
2022-12-08T10:33:33.404Z,12.90
2022-12-08T10:36:57.804Z,11.82
2022-12-08T10:40:17.820Z,25.08
2022-12-08T10:43:22.104Z,13.35
2022-12-08T10:46:22.642Z,17.13
2022-12-08T10:49:32.259Z,18.25
2022-12-08T10:52:29.295Z,11.68
2022-12-08T10:55:27.639Z,11.98
2022-12-08T10:58:42.631Z,19.98
2022-12-08T11:01:41.191Z,15.63
2022-12-08T11:04:38.473Z,23.73
2022-12-08T11:07:35.330Z,23.42
2022-12-08T11:10:43.495Z,19.40
2022-12-08T11:13:42.179Z,25.63
2022-12-08T11:16:43.026Z,20.67
2022-12-08T11:19:43.747Z,14.82
2022-12-08T11:25:42.606Z,10.18
2022-12-08T11:28:39.997Z,12.52
2022-12-08T11:32:00.813Z,11.02
2022-12-08T11:35:10.115Z,11.60
2022-12-08T11:38:22.283Z,18.55
2022-12-08T11:41:24.228Z,18.60
2022-12-08T11:44:40.638Z,11.07
2022-12-08T11:47:55.784Z,13.18
2022-12-08T11:51:12.874Z,10.75
2022-12-08T11:54:34.690Z,10.27
2022-12-08T11:57:31.685Z,11.98
2022-12-08T12:00:28.764Z,13.20
2022-12-08T12:03:40.496Z,12.00
2022-12-08T12:06:54.776Z,12.73
2022-12-08T12:10:38.948Z,10.98
2022-12-08T12:14:16.639Z,11.27
2022-12-08T12:17:41.556Z,12.85
2022-12-08T12:21:06.113Z,12.80
2022-12-08T12:24:36.454Z,10.82
2022-12-08T12:27:41.383Z,12.68
2022-12-08T12:30:56.646Z,12.82
2022-12-08T12:34:05.943Z,14.40
2022-12-08T12:37:14.532Z,10.55
2022-12-08T12:40:26.576Z,12.05
2022-12-08T12:43:37.300Z,12.73
2022-12-08T12:49:40.939Z,14.00
2022-12-08T12:52:39.681Z,12.70
2022-12-08T12:55:57.376Z,12.45
2022-12-08T12:58:54.333Z,11.60
2022-12-08T13:02:02.483Z,12.52
2022-12-08T13:05:02.484Z,10.75
2022-12-08T13:08:07.946Z,13.60
2022-12-08T13:11:10.783Z,11.90
2022-12-08T13:14:33.221Z,12.35
2022-12-08T13:17:35.207Z,14.95
2022-12-08T13:21:01.971Z,10.80
2022-12-08T13:24:13.604Z,11.52
2022-12-08T13:27:13.715Z,12.68
2022-12-08T13:30:52.540Z,12.75
2022-12-08T13:33:49.642Z,12.43
2022-12-08T13:37:02.237Z,16.48
2022-12-08T13:40:13.194Z,15.57
2022-12-08T13:43:55.558Z,14.75
2022-12-08T13:57:33.078Z,12.15
2022-12-08T14:00:30.281Z,9.48
2022-12-08T14:03:27.286Z,11.68
2022-12-08T14:06:49.640Z,10.85
2022-12-08T14:09:46.927Z,13.65
2022-12-08T14:12:51.959Z,13.45
2022-12-08T14:15:49.124Z,12.48
2022-12-08T14:18:46.224Z,11.85
2022-12-08T14:22:06.171Z,11.95
2022-12-08T14:25:05.888Z,17.70
2022-12-08T14:28:04.615Z,14.18
2022-12-08T14:31:03.534Z,12.70
2022-12-08T14:34:00.414Z,13.77
2022-12-08T14:36:57.916Z,16.17
2022-12-08T14:40:01.968Z,24.17
2022-12-08T14:43:10.223Z,32.67
2022-12-08T14:46:33.542Z,30.85
2022-12-08T14:49:36.026Z,29.17
2022-12-08T14:52:33.150Z,25.83
2022-12-08T14:55:36.875Z,60.47
2022-12-08T14:58:33.726Z,56.15
2022-12-08T15:01:31.388Z,20.65
2022-12-08T15:04:29.061Z,17.08
2022-12-08T15:07:37.925Z,15.57
2022-12-08T15:10:38.010Z,14.77
2022-12-08T15:13:34.977Z,17.15
2022-12-08T15:16:43.846Z,17.70
2022-12-08T15:19:40.794Z,18.02
2022-12-08T15:22:38.732Z,22.80
2022-12-08T15:25:35.572Z,18.05
2022-12-08T15:28:32.465Z,20.38
2022-12-08T15:31:29.335Z,20.80
2022-12-08T15:34:26.490Z,19.20
2022-12-08T15:37:26.412Z,16.75
2022-12-08T15:40:23.384Z,14.75
2022-12-08T15:43:21.684Z,13.85
2022-12-08T15:46:18.546Z,12.57
2022-12-08T15:49:21.934Z,21.85
2022-12-08T15:52:22.775Z,14.00
2022-12-08T15:55:21.600Z,16.10
2022-12-08T15:58:52.992Z,14.15
2022-12-08T16:01:41.256Z,17.65
2022-12-08T16:07:57.836Z,19.17
2022-12-08T16:12:03.993Z,15.70
2022-12-08T16:17:49.006Z,15.77
2022-12-08T16:24:08.923Z,26.95
2022-12-08T16:28:00.109Z,26.50
2022-12-08T16:30:45.544Z,16.33
2022-12-08T16:33:42.639Z,15.77
2022-12-08T16:36:39.546Z,14.50
2022-12-08T16:39:39.890Z,14.85
2022-12-08T16:42:43.513Z,12.18
2022-12-08T16:45:45.000Z,14.57
2022-12-08T16:48:42.107Z,16.48
2022-12-08T16:51:41.552Z,15.18
2022-12-08T16:54:38.377Z,14.57
2022-12-08T16:57:35.276Z,15.63
2022-12-08T17:00:37.587Z,14.45
2022-12-08T17:03:34.509Z,10.88
2022-12-08T17:06:31.464Z,11.85
2022-12-08T17:09:29.124Z,10.35
2022-12-08T17:12:25.966Z,10.68
2022-12-08T17:15:25.609Z,11.07
2022-12-08T17:18:22.445Z,11.27
2022-12-08T17:21:19.693Z,10.02
2022-12-08T17:24:21.804Z,9.75
2022-12-08T17:27:18.978Z,11.93
2022-12-08T17:30:17.659Z,9.20
2022-12-08T17:33:14.569Z,11.43
2022-12-08T17:36:15.552Z,11.07
2022-12-08T17:39:18.467Z,13.15
2022-12-08T17:42:15.844Z,11.25
2022-12-08T17:45:12.705Z,9.82
2022-12-08T17:48:09.855Z,11.52
2022-12-08T17:51:09.811Z,14.48
2022-12-08T17:54:06.923Z,9.70
2022-12-08T17:57:04.404Z,8.27
2022-12-08T18:00:01.229Z,12.50
2022-12-08T18:02:58.677Z,15.82
2022-12-08T18:05:55.556Z,19.63
2022-12-08T18:08:52.375Z,12.55
2022-12-08T18:11:49.252Z,18.42
2022-12-08T18:14:46.464Z,18.85
2022-12-08T18:17:43.265Z,15.93
2022-12-08T18:20:40.191Z,17.05
2022-12-08T18:23:42.743Z,18.08
2022-12-08T18:26:39.879Z,16.95
2022-12-08T18:29:36.808Z,18.20
2022-12-08T18:32:33.983Z,20.20
2022-12-08T18:35:30.928Z,22.45
2022-12-08T18:38:27.832Z,17.15
2022-12-08T18:41:26.105Z,17.88
2022-12-08T18:44:23.222Z,16.90
2022-12-08T18:47:20.238Z,17.67
2022-12-08T18:50:17.802Z,15.30
2022-12-08T18:53:14.646Z,14.98
2022-12-08T18:56:30.418Z,13.98
2022-12-08T18:59:27.277Z,15.70
2022-12-08T19:02:24.348Z,16.20
2022-12-08T19:05:21.238Z,16.65
2022-12-08T19:08:18.281Z,15.10
2022-12-08T19:11:24.660Z,14.02
2022-12-08T19:14:27.733Z,16.75
2022-12-08T19:17:25.949Z,18.38
2022-12-08T19:20:22.887Z,19.30
2022-12-08T19:23:19.762Z,16.70
2022-12-08T19:26:16.632Z,17.58
2022-12-08T19:29:13.893Z,17.27
2022-12-08T19:32:10.729Z,22.17
2022-12-08T19:35:08.106Z,20.70
2022-12-08T19:38:05.275Z,19.90
2022-12-08T19:41:28.145Z,19.83
2022-12-08T19:44:34.414Z,19.38
2022-12-08T19:47:31.327Z,17.90
2022-12-08T19:50:37.584Z,20.77
2022-12-08T19:53:34.446Z,15.75
2022-12-08T19:56:32.412Z,20.83
2022-12-08T19:59:30.304Z,16.20
2022-12-08T20:02:27.383Z,20.13
2022-12-08T20:05:24.766Z,15.02
2022-12-08T20:08:21.702Z,17.90
2022-12-08T20:11:18.610Z,19.75
2022-12-08T20:14:15.535Z,15.52
2022-12-08T20:17:12.362Z,19.88
2022-12-08T20:20:10.656Z,22.13
2022-12-08T20:23:08.182Z,18.90
2022-12-08T20:26:07.961Z,14.68
2022-12-08T20:29:04.833Z,15.07
2022-12-08T20:32:01.745Z,14.00
2022-12-08T20:34:58.781Z,17.05
2022-12-08T20:37:55.599Z,15.15
2022-12-08T20:40:52.452Z,16.15
2022-12-08T20:43:49.732Z,19.98
2022-12-08T20:46:49.546Z,22.15
2022-12-08T20:49:47.771Z,17.27
2022-12-08T20:52:44.829Z,22.08
2022-12-08T20:55:42.747Z,24.05
2022-12-08T20:58:41.206Z,21.25
2022-12-08T21:01:38.483Z,21.35
2022-12-08T21:04:35.643Z,21.55
2022-12-08T21:07:33.692Z,19.95
2022-12-08T21:10:30.632Z,17.73
2022-12-08T21:13:27.961Z,19.75
2022-12-08T21:16:24.876Z,21.58
2022-12-08T21:19:23.038Z,18.27
2022-12-08T21:22:21.129Z,18.83
2022-12-08T21:25:18.174Z,15.02
2022-12-08T21:28:15.484Z,16.92
2022-12-08T21:31:19.060Z,15.88
2022-12-08T21:34:16.198Z,15.43
2022-12-08T21:37:13.302Z,14.57
2022-12-08T21:40:11.695Z,16.00
2022-12-08T21:43:09.052Z,17.70
2022-12-08T21:46:06.236Z,14.75
2022-12-08T21:49:04.459Z,13.25
2022-12-08T21:52:01.344Z,12.57
2022-12-08T21:54:58.323Z,15.80
2022-12-08T21:57:56.928Z,14.60
2022-12-08T22:00:54.212Z,14.27
2022-12-08T22:03:51.463Z,13.90
2022-12-08T22:06:49.083Z,12.90
2022-12-08T22:09:46.423Z,19.20
2022-12-08T22:12:43.915Z,19.25
2022-12-08T22:15:40.960Z,13.93
2022-12-08T22:18:38.245Z,13.20
2022-12-08T22:21:35.588Z,13.52
2022-12-08T22:24:32.876Z,15.65
2022-12-08T22:27:30.112Z,15.43
2022-12-08T22:30:27.106Z,15.70
2022-12-08T22:33:24.815Z,17.63
2022-12-08T22:36:28.067Z,15.57
2022-12-08T22:39:25.189Z,14.50
2022-12-08T22:42:22.162Z,14.95
2022-12-08T22:45:19.197Z,14.68
2022-12-08T22:48:16.879Z,12.65
2022-12-08T22:51:14.822Z,15.75
2022-12-08T22:54:12.826Z,14.95
2022-12-08T22:57:10.282Z,16.58
2022-12-08T23:00:11.502Z,14.70
2022-12-08T23:03:08.949Z,12.45
2022-12-08T23:06:13.036Z,22.02
2022-12-08T23:09:10.183Z,15.43
2022-12-08T23:12:07.731Z,13.93
2022-12-08T23:15:05.600Z,12.68
2022-12-08T23:18:02.793Z,14.85
2022-12-08T23:21:13.441Z,14.85
2022-12-08T23:24:10.434Z,14.60
2022-12-08T23:27:07.340Z,16.13
2022-12-08T23:30:08.344Z,16.13
2022-12-08T23:33:05.630Z,14.70
2022-12-08T23:36:02.756Z,16.45
2022-12-08T23:38:59.757Z,16.17
2022-12-08T23:41:56.833Z,14.82
2022-12-08T23:44:54.016Z,15.98
2022-12-08T23:47:50.996Z,16.58
2022-12-08T23:50:48.412Z,16.98
2022-12-08T23:53:45.585Z,17.50
2022-12-08T23:56:42.753Z,17.42
2022-12-08T23:59:39.650Z,15.98
